createdAt,value
2016-12-26T00:00:58.852Z,0
2016-12-26T00:02:09.837Z,0
2016-12-26T00:03:20.825Z,0
2016-12-26T00:04:32.063Z,0
2016-12-26T00:05:43.107Z,0
2016-12-26T00:06:54.114Z,0
2016-12-26T00:08:05.099Z,0
2016-12-26T00:09:16.291Z,0
2016-12-26T00:10:27.385Z,0
2016-12-26T00:11:38.374Z,0
2016-12-26T00:12:49.357Z,0
2016-12-26T00:14:00.340Z,0
2016-12-26T00:15:11.329Z,0
2016-12-26T00:16:22.362Z,0
2016-12-26T00:17:33.558Z,0
2016-12-26T00:18:44.582Z,0
2016-12-26T00:19:55.569Z,0
2016-12-26T00:21:06.557Z,0
2016-12-26T00:22:17.591Z,0
2016-12-26T00:23:28.610Z,0
2016-12-26T00:24:39.598Z,0
2016-12-26T00:25:50.590Z,0
2016-12-26T00:27:01.576Z,0
2016-12-26T00:28:12.616Z,0
2016-12-26T00:29:23.604Z,0
2016-12-26T00:30:34.592Z,0
2016-12-26T00:31:45.578Z,0
2016-12-26T00:32:56.564Z,0
2016-12-26T00:34:07.798Z,0
2016-12-26T00:35:19.186Z,0
2016-12-26T00:36:30.169Z,0
2016-12-26T00:37:41.189Z,0
2016-12-26T00:38:52.171Z,0
2016-12-26T00:40:03.204Z,0
2016-12-26T00:41:14.201Z,0
2016-12-26T00:42:25.382Z,0
2016-12-26T00:43:36.373Z,0
2016-12-26T00:44:47.379Z,0
2016-12-26T00:45:58.420Z,0
2016-12-26T00:47:09.403Z,0
2016-12-26T00:48:20.390Z,0
2016-12-26T00:49:31.573Z,0
2016-12-26T00:50:42.557Z,0
2016-12-26T00:51:53.593Z,0
2016-12-26T00:53:04.597Z,0
2016-12-26T00:54:15.815Z,0
2016-12-26T00:55:26.797Z,0
2016-12-26T00:56:37.984Z,0
2016-12-26T00:57:49.224Z,0
2016-12-26T00:59:00.218Z,0
2016-12-26T01:00:11.207Z,0
2016-12-26T01:01:22.194Z,0
2016-12-26T01:02:33.190Z,0
2016-12-26T01:03:44.227Z,0
2016-12-26T01:04:55.211Z,0
2016-12-26T01:06:06.201Z,0
2016-12-26T01:07:17.192Z,0
2016-12-26T01:08:28.190Z,0
2016-12-26T01:09:39.235Z,0
2016-12-26T01:10:50.228Z,0
2016-12-26T01:12:01.211Z,0
2016-12-26T01:13:12.404Z,0
2016-12-26T01:14:23.392Z,0
2016-12-26T01:15:34.441Z,0
2016-12-26T01:16:45.626Z,0
2016-12-26T01:17:56.614Z,0
2016-12-26T01:19:07.593Z,0
2016-12-26T01:20:18.575Z,0
2016-12-26T01:21:29.612Z,0
2016-12-26T01:22:40.605Z,0
2016-12-26T01:23:51.593Z,0
2016-12-26T01:25:02.602Z,0
2016-12-26T01:26:13.592Z,0
2016-12-26T01:27:24.627Z,0
2016-12-26T01:28:35.612Z,0
2016-12-26T01:29:46.593Z,0
2016-12-26T01:30:57.581Z,0
2016-12-26T01:32:08.568Z,0
2016-12-26T01:33:19.801Z,0
2016-12-26T01:34:30.793Z,0
2016-12-26T01:35:41.984Z,0
2016-12-26T01:36:52.973Z,0
2016-12-26T01:38:03.964Z,0
2016-12-26T01:39:15.201Z,0
2016-12-26T01:40:26.597Z,0
2016-12-26T01:41:37.590Z,0
2016-12-26T01:42:48.578Z,0
2016-12-26T01:43:59.558Z,0
2016-12-26T01:45:10.593Z,0
2016-12-26T01:46:21.575Z,0
2016-12-26T01:47:32.560Z,0
2016-12-26T01:48:43.547Z,0
2016-12-26T01:49:54.527Z,0
2016-12-26T01:51:05.568Z,0
2016-12-26T01:52:16.549Z,0
2016-12-26T01:53:27.753Z,0
2016-12-26T01:54:38.727Z,0
2016-12-26T01:55:49.721Z,0
2016-12-26T01:57:00.758Z,0
2016-12-26T01:58:11.746Z,0
2016-12-26T01:59:22.739Z,0
2016-12-26T02:00:33.728Z,0
2016-12-26T02:01:44.714Z,0
2016-12-26T02:02:55.764Z,0
2016-12-26T02:04:06.746Z,0
2016-12-26T02:05:17.931Z,0
2016-12-26T02:06:29.123Z,0
2016-12-26T02:07:40.312Z,0
2016-12-26T02:08:51.351Z,0
2016-12-26T02:10:02.337Z,0
2016-12-26T02:11:13.323Z,0
2016-12-26T02:12:24.309Z,0
2016-12-26T02:13:35.299Z,0
2016-12-26T02:14:46.334Z,0
2016-12-26T02:15:57.317Z,0
2016-12-26T02:17:08.297Z,0
2016-12-26T02:18:19.286Z,0
2016-12-26T02:19:30.271Z,0
2016-12-26T02:20:41.309Z,0
2016-12-26T02:21:52.299Z,0
2016-12-26T02:23:03.285Z,0
2016-12-26T02:24:14.284Z,0
2016-12-26T02:25:25.270Z,0
2016-12-26T02:26:36.721Z,0
2016-12-26T02:27:47.697Z,0
2016-12-26T02:28:58.690Z,0
2016-12-26T02:30:09.666Z,0
2016-12-26T02:31:20.880Z,0
2016-12-26T02:32:32.119Z,0
2016-12-26T02:33:43.096Z,0
2016-12-26T02:34:54.093Z,0
2016-12-26T02:36:05.085Z,0
2016-12-26T02:37:16.077Z,0
2016-12-26T02:38:27.112Z,0
2016-12-26T02:39:38.100Z,0
2016-12-26T02:40:49.087Z,0
2016-12-26T02:42:00.072Z,0
2016-12-26T02:43:11.055Z,0
2016-12-26T02:44:22.099Z,0
2016-12-26T02:45:33.081Z,0
2016-12-26T02:46:44.062Z,0
2016-12-26T02:47:55.044Z,0
2016-12-26T02:49:06.033Z,0
2016-12-26T02:50:17.086Z,0
2016-12-26T02:51:28.071Z,0
2016-12-26T02:52:39.266Z,0
2016-12-26T02:53:50.251Z,0
2016-12-26T02:55:01.232Z,0
2016-12-26T02:56:12.470Z,0
2016-12-26T02:57:23.460Z,0
2016-12-26T02:58:34.451Z,0
2016-12-26T02:59:45.442Z,0
2016-12-26T03:00:56.421Z,0
2016-12-26T03:02:07.464Z,0
2016-12-26T03:03:18.446Z,0
2016-12-26T03:04:29.456Z,0
2016-12-26T03:05:40.645Z,0
2016-12-26T03:06:51.631Z,0
2016-12-26T03:08:02.674Z,0
2016-12-26T03:09:13.861Z,0
2016-12-26T03:10:25.058Z,0
2016-12-26T03:11:36.043Z,0
2016-12-26T03:12:47.038Z,0
2016-12-26T03:13:58.073Z,0
2016-12-26T03:15:09.061Z,0
2016-12-26T03:16:20.047Z,0
2016-12-26T03:17:31.066Z,0
2016-12-26T03:18:42.047Z,0
2016-12-26T03:19:53.290Z,0
2016-12-26T03:21:04.278Z,0
2016-12-26T03:22:15.270Z,0
2016-12-26T03:23:26.263Z,0
2016-12-26T03:24:37.251Z,0
2016-12-26T03:25:48.283Z,0
2016-12-26T03:26:59.265Z,0
2016-12-26T03:28:10.251Z,0
2016-12-26T03:29:21.238Z,0
2016-12-26T03:30:32.232Z,0
2016-12-26T03:31:43.266Z,0
2016-12-26T03:32:54.456Z,0
2016-12-26T03:34:05.635Z,0
2016-12-26T03:35:16.817Z,0
2016-12-26T03:36:27.805Z,0
2016-12-26T03:37:38.839Z,0
2016-12-26T03:38:49.824Z,0
2016-12-26T03:40:00.813Z,0
2016-12-26T03:41:12.008Z,0
2016-12-26T03:42:23.000Z,0
2016-12-26T03:43:34.037Z,0
2016-12-26T03:44:45.025Z,0
2016-12-26T03:45:56.211Z,0
2016-12-26T03:47:07.206Z,0
2016-12-26T03:48:18.192Z,0
2016-12-26T03:49:29.228Z,0
2016-12-26T03:50:40.210Z,0
2016-12-26T03:51:51.203Z,0
2016-12-26T03:53:02.399Z,0
2016-12-26T03:54:13.589Z,0
2016-12-26T03:55:24.630Z,0
2016-12-26T03:56:35.624Z,0
2016-12-26T03:57:46.820Z,0
2016-12-26T03:58:58.010Z,0
2016-12-26T04:00:08.993Z,0
2016-12-26T04:01:20.051Z,0
2016-12-26T04:02:31.028Z,0
2016-12-26T04:03:42.021Z,0
2016-12-26T04:04:53.012Z,0
2016-12-26T04:06:03.994Z,0
2016-12-26T04:07:15.033Z,0
2016-12-26T04:08:26.037Z,0
2016-12-26T04:09:37.056Z,0
2016-12-26T04:10:48.247Z,0
2016-12-26T04:11:59.242Z,0
2016-12-26T04:13:10.279Z,0
2016-12-26T04:14:21.270Z,0
2016-12-26T04:15:32.467Z,0
2016-12-26T04:16:43.459Z,0
2016-12-26T04:17:54.444Z,0
2016-12-26T04:19:05.481Z,0
2016-12-26T04:20:16.462Z,0
2016-12-26T04:21:27.453Z,0
2016-12-26T04:22:38.639Z,0
2016-12-26T04:23:49.629Z,0
2016-12-26T04:25:00.666Z,0
2016-12-26T04:26:11.649Z,0
2016-12-26T04:27:22.639Z,0
2016-12-26T04:28:33.622Z,0
2016-12-26T04:29:44.810Z,0
2016-12-26T04:30:55.852Z,0
2016-12-26T04:32:07.048Z,0
2016-12-26T04:33:18.242Z,0
2016-12-26T04:34:29.224Z,0
2016-12-26T04:35:40.414Z,0
2016-12-26T04:36:51.450Z,0
2016-12-26T04:38:02.434Z,0
2016-12-26T04:39:13.422Z,0
2016-12-26T04:40:24.415Z,0
2016-12-26T04:41:35.443Z,0
2016-12-26T04:42:46.481Z,0
2016-12-26T04:43:57.473Z,0
2016-12-26T04:45:08.653Z,0
2016-12-26T04:46:19.848Z,0
2016-12-26T04:47:30.837Z,0
2016-12-26T04:48:41.874Z,0
2016-12-26T04:49:53.063Z,0
2016-12-26T04:51:04.055Z,0
2016-12-26T04:52:15.046Z,0
2016-12-26T04:53:26.033Z,0
2016-12-26T04:54:37.072Z,0
2016-12-26T04:55:48.465Z,0
2016-12-26T04:56:59.453Z,0
2016-12-26T04:58:10.438Z,0
2016-12-26T04:59:21.426Z,0
2016-12-26T05:00:32.460Z,0
2016-12-26T05:01:43.650Z,0
2016-12-26T05:02:54.633Z,0
2016-12-26T05:04:05.617Z,0
2016-12-26T05:05:16.607Z,0
2016-12-26T05:06:27.652Z,0
2016-12-26T05:07:38.839Z,0
2016-12-26T05:08:49.840Z,0
2016-12-26T05:10:00.855Z,0
2016-12-26T05:11:11.842Z,0
2016-12-26T05:12:22.877Z,0
2016-12-26T05:13:33.860Z,0
2016-12-26T05:14:45.053Z,0
2016-12-26T05:15:56.048Z,0
2016-12-26T05:17:07.035Z,0
2016-12-26T05:18:18.099Z,0
2016-12-26T05:19:29.089Z,0
2016-12-26T05:20:40.074Z,0
2016-12-26T05:21:51.093Z,0
2016-12-26T05:23:02.285Z,0
2016-12-26T05:24:13.318Z,0
2016-12-26T05:25:24.299Z,0
2016-12-26T05:26:35.291Z,0
2016-12-26T05:27:46.295Z,0
2016-12-26T05:28:57.275Z,0
2016-12-26T05:30:08.311Z,0
2016-12-26T05:31:19.296Z,0
2016-12-26T05:32:30.485Z,0
2016-12-26T05:33:41.466Z,0
2016-12-26T05:34:52.448Z,0
2016-12-26T05:36:03.483Z,0
2016-12-26T05:37:14.465Z,0
2016-12-26T05:38:25.462Z,0
2016-12-26T05:39:36.454Z,0
2016-12-26T05:40:47.436Z,0
2016-12-26T05:41:58.474Z,0
2016-12-26T05:43:09.497Z,0
2016-12-26T05:44:20.488Z,0
2016-12-26T05:45:31.679Z,0
2016-12-26T05:46:42.869Z,0
2016-12-26T05:47:53.903Z,0
2016-12-26T05:49:04.896Z,0
2016-12-26T05:50:15.883Z,0
2016-12-26T05:51:26.901Z,0
2016-12-26T05:52:37.895Z,0
2016-12-26T05:53:48.933Z,0
2016-12-26T05:55:00.128Z,0
2016-12-26T05:56:11.313Z,0
2016-12-26T05:57:22.297Z,0
2016-12-26T05:58:33.294Z,0
2016-12-26T05:59:44.541Z,0
2016-12-26T06:00:55.523Z,0
2016-12-26T06:02:06.505Z,0
2016-12-26T06:03:17.485Z,0
2016-12-26T06:04:28.476Z,0
2016-12-26T06:05:39.744Z,0
2016-12-26T06:06:50.934Z,0
2016-12-26T06:08:01.923Z,0
2016-12-26T06:09:12.899Z,0
2016-12-26T06:10:24.090Z,0
2016-12-26T06:11:35.331Z,0
2016-12-26T06:12:46.324Z,0
2016-12-26T06:13:57.311Z,0
2016-12-26T06:15:08.296Z,0
2016-12-26T06:16:19.285Z,0
2016-12-26T06:17:30.325Z,0
2016-12-26T06:18:41.318Z,0
2016-12-26T06:19:52.317Z,0
2016-12-26T06:21:03.301Z,0
2016-12-26T06:22:14.282Z,0
2016-12-26T06:23:25.350Z,0
2016-12-26T06:24:36.331Z,0
2016-12-26T06:25:47.312Z,0
2016-12-26T06:26:58.510Z,0
2016-12-26T06:28:09.516Z,0
2016-12-26T06:29:20.548Z,0
2016-12-26T06:30:31.737Z,0
2016-12-26T06:31:42.921Z,0
2016-12-26T06:32:53.909Z,0
2016-12-26T06:34:04.893Z,0
2016-12-26T06:35:15.932Z,0
2016-12-26T06:36:27.122Z,0
2016-12-26T06:37:38.513Z,0
2016-12-26T06:38:49.497Z,0
2016-12-26T06:40:00.482Z,0
2016-12-26T06:41:11.512Z,0
2016-12-26T06:42:22.496Z,0
2016-12-26T06:43:33.488Z,0
2016-12-26T06:44:44.483Z,0
2016-12-26T06:45:55.469Z,0
2016-12-26T06:47:06.508Z,0
2016-12-26T06:48:17.496Z,0
2016-12-26T06:49:28.486Z,0
2016-12-26T06:50:39.479Z,0
2016-12-26T06:51:50.472Z,0
2016-12-26T06:53:01.513Z,0
2016-12-26T06:54:12.508Z,0
2016-12-26T06:55:23.499Z,0
2016-12-26T06:56:34.686Z,0
2016-12-26T06:57:45.667Z,0
2016-12-26T06:58:56.705Z,0
2016-12-26T07:00:07.693Z,0
2016-12-26T07:01:18.684Z,0
2016-12-26T07:02:29.674Z,0
2016-12-26T07:03:40.654Z,0
2016-12-26T07:04:51.692Z,0
2016-12-26T07:06:02.680Z,0
2016-12-26T07:07:13.683Z,0
2016-12-26T07:08:24.679Z,0
2016-12-26T07:09:35.669Z,0
2016-12-26T07:10:46.707Z,0
2016-12-26T07:11:57.716Z,0
2016-12-26T07:13:08.702Z,0
2016-12-26T07:14:19.684Z,0
2016-12-26T07:15:30.874Z,0
2016-12-26T07:16:41.911Z,0
2016-12-26T07:17:52.901Z,0
2016-12-26T07:19:03.893Z,0
2016-12-26T07:20:14.875Z,0
2016-12-26T07:21:26.070Z,0
2016-12-26T07:22:37.333Z,0
2016-12-26T07:23:48.320Z,0
2016-12-26T07:24:59.315Z,0
2016-12-26T07:26:10.311Z,0
2016-12-26T07:27:21.302Z,0
2016-12-26T07:28:32.336Z,0
2016-12-26T07:29:43.327Z,0
2016-12-26T07:30:54.318Z,0
2016-12-26T07:32:05.304Z,0
2016-12-26T07:33:16.294Z,0
2016-12-26T07:34:27.485Z,0
2016-12-26T07:35:38.469Z,0
2016-12-26T07:36:49.483Z,0
2016-12-26T07:38:00.486Z,0
2016-12-26T07:39:11.461Z,0
2016-12-26T07:40:22.497Z,0
2016-12-26T07:41:33.512Z,0
2016-12-26T07:42:44.496Z,0
2016-12-26T07:43:55.478Z,0
2016-12-26T07:45:06.460Z,0
2016-12-26T07:46:17.535Z,0
2016-12-26T07:47:28.521Z,0
2016-12-26T07:48:39.505Z,0
2016-12-26T07:49:50.541Z,0
2016-12-26T07:51:01.723Z,0
2016-12-26T07:52:12.711Z,0
2016-12-26T07:53:23.694Z,0
2016-12-26T07:54:34.683Z,0
2016-12-26T07:55:45.678Z,0
2016-12-26T07:56:56.718Z,5
2016-12-26T07:58:07.708Z,5
2016-12-26T07:59:18.890Z,5
2016-12-26T08:00:29.904Z,5
2016-12-26T08:01:40.891Z,5
2016-12-26T08:02:51.928Z,5
2016-12-26T08:04:02.909Z,5
2016-12-26T08:05:14.126Z,5
2016-12-26T08:06:25.118Z,5
2016-12-26T08:07:36.119Z,5
2016-12-26T08:08:47.161Z,5
2016-12-26T08:09:58.150Z,0
2016-12-26T08:11:09.159Z,0
2016-12-26T08:12:20.143Z,0
2016-12-26T08:13:31.139Z,5
2016-12-26T08:14:42.175Z,10
2016-12-26T08:15:53.157Z,10
2016-12-26T08:17:04.140Z,10
2016-12-26T08:18:15.134Z,10
2016-12-26T08:19:26.121Z,10
2016-12-26T08:20:37.160Z,10
2016-12-26T08:21:48.145Z,10
2016-12-26T08:22:59.129Z,10
2016-12-26T08:24:10.114Z,15
2016-12-26T08:25:21.296Z,15
2016-12-26T08:26:32.533Z,15
2016-12-26T08:27:43.512Z,15
2016-12-26T08:28:54.500Z,15
2016-12-26T08:30:05.497Z,20
2016-12-26T08:31:16.884Z,20
2016-12-26T08:32:28.122Z,20
2016-12-26T08:33:39.103Z,20
2016-12-26T08:34:50.294Z,20
2016-12-26T08:36:01.287Z,25
2016-12-26T08:37:12.273Z,30
2016-12-26T08:38:23.296Z,30
2016-12-26T08:39:34.281Z,35
2016-12-26T08:40:45.272Z,35
2016-12-26T08:41:56.255Z,40
2016-12-26T08:43:07.239Z,40
2016-12-26T08:44:18.274Z,50
2016-12-26T08:45:29.260Z,50
2016-12-26T08:46:40.453Z,55
2016-12-26T08:47:51.440Z,60
2016-12-26T08:49:02.432Z,65
2016-12-26T08:50:13.675Z,75
2016-12-26T08:51:24.659Z,90
2016-12-26T08:52:35.657Z,100
2016-12-26T08:53:46.648Z,90
2016-12-26T08:54:57.827Z,80
2016-12-26T08:56:09.057Z,75
2016-12-26T08:57:20.055Z,65
2016-12-26T08:58:31.047Z,65
2016-12-26T08:59:42.043Z,60
2016-12-26T09:00:53.030Z,55
2016-12-26T09:02:04.059Z,60
2016-12-26T09:03:15.057Z,70
2016-12-26T09:04:26.045Z,70
2016-12-26T09:05:37.432Z,75
2016-12-26T09:06:48.427Z,75
2016-12-26T09:07:59.464Z,55
2016-12-26T09:09:10.447Z,50
2016-12-26T09:10:21.429Z,45
2016-12-26T09:11:32.415Z,45
2016-12-26T09:12:43.610Z,45
2016-12-26T09:13:54.652Z,45
2016-12-26T09:15:05.643Z,55
2016-12-26T09:16:16.627Z,55
2016-12-26T09:17:27.613Z,55
2016-12-26T09:18:38.593Z,55
2016-12-26T09:19:49.639Z,55
2016-12-26T09:21:00.619Z,55
2016-12-26T09:22:11.605Z,50
2016-12-26T09:23:22.590Z,45
2016-12-26T09:24:33.583Z,45
2016-12-26T09:25:44.623Z,50
2016-12-26T09:26:55.606Z,45
2016-12-26T09:28:06.616Z,35
2016-12-26T09:29:17.602Z,25
2016-12-26T09:30:28.595Z,25
2016-12-26T09:31:39.629Z,25
2016-12-26T09:32:50.844Z,25
2016-12-26T09:34:01.857Z,30
2016-12-26T09:35:12.844Z,25
2016-12-26T09:36:23.830Z,25
2016-12-26T09:37:34.861Z,30
2016-12-26T09:38:45.845Z,30
2016-12-26T09:39:56.824Z,30
2016-12-26T09:41:07.807Z,30
2016-12-26T09:42:18.788Z,25
2016-12-26T09:43:30.030Z,25
2016-12-26T09:44:41.223Z,25
2016-12-26T09:45:52.204Z,25
2016-12-26T09:47:03.405Z,30
2016-12-26T09:48:14.397Z,30
2016-12-26T09:49:25.428Z,30
2016-12-26T09:50:36.415Z,30
2016-12-26T09:51:47.610Z,35
2016-12-26T09:52:58.613Z,35
2016-12-26T09:54:09.598Z,30
2016-12-26T09:55:20.632Z,30
2016-12-26T09:56:31.623Z,30
2016-12-26T09:57:42.609Z,30
2016-12-26T09:58:53.615Z,30
2016-12-26T10:00:04.593Z,25
2016-12-26T10:01:15.596Z,25
2016-12-26T10:02:26.784Z,30
2016-12-26T10:03:37.775Z,35
2016-12-26T10:04:48.765Z,40
2016-12-26T10:05:59.801Z,40
2016-12-26T10:07:10.784Z,45
2016-12-26T10:08:21.970Z,45
2016-12-26T10:09:32.957Z,40
2016-12-26T10:10:43.948Z,35
2016-12-26T10:11:54.982Z,35
2016-12-26T10:13:05.970Z,30
2016-12-26T10:14:16.955Z,35
2016-12-26T10:15:28.139Z,45
2016-12-26T10:16:39.157Z,50
2016-12-26T10:17:50.421Z,55
2016-12-26T10:19:01.409Z,55
2016-12-26T10:20:12.398Z,55
2016-12-26T10:21:23.391Z,55
2016-12-26T10:22:34.381Z,60
2016-12-26T10:23:45.412Z,70
2016-12-26T10:24:56.397Z,75
2016-12-26T10:26:07.782Z,85
2016-12-26T10:27:18.772Z,85
2016-12-26T10:28:29.955Z,85
2016-12-26T10:29:41.007Z,85
2016-12-26T10:30:51.986Z,85
2016-12-26T10:32:02.972Z,95
2016-12-26T10:33:13.971Z,105
2016-12-26T10:34:24.957Z,90
2016-12-26T10:35:35.989Z,85
2016-12-26T10:36:46.971Z,80
2016-12-26T10:37:57.953Z,70
2016-12-26T10:39:08.945Z,70
2016-12-26T10:40:19.920Z,80
2016-12-26T10:41:31.361Z,90
2016-12-26T10:42:42.352Z,100
2016-12-26T10:43:53.335Z,105
2016-12-26T10:45:04.356Z,110
2016-12-26T10:46:15.331Z,105
2016-12-26T10:47:26.363Z,100
2016-12-26T10:48:37.351Z,125
2016-12-26T10:49:48.335Z,155
2016-12-26T10:50:59.317Z,150
2016-12-26T10:52:10.299Z,145
2016-12-26T10:53:21.338Z,205
2016-12-26T10:54:32.325Z,295
2016-12-26T10:55:43.508Z,330
2016-12-26T10:56:54.511Z,330
2016-12-26T10:58:05.498Z,295
2016-12-26T10:59:16.488Z,260
2016-12-26T11:00:27.682Z,235
2016-12-26T11:01:38.867Z,215
2016-12-26T11:02:49.848Z,225
2016-12-26T11:04:00.885Z,240
2016-12-26T11:05:12.071Z,200
2016-12-26T11:06:23.065Z,190
2016-12-26T11:07:34.082Z,175
2016-12-26T11:08:45.076Z,170
2016-12-26T11:09:56.112Z,165
2016-12-26T11:11:07.095Z,155
2016-12-26T11:12:18.289Z,115
2016-12-26T11:13:29.276Z,90
2016-12-26T11:14:40.465Z,70
2016-12-26T11:15:51.510Z,60
2016-12-26T11:17:02.493Z,55
2016-12-26T11:18:13.483Z,60
2016-12-26T11:19:24.460Z,95
2016-12-26T11:20:35.445Z,175
2016-12-26T11:21:46.486Z,200
2016-12-26T11:22:57.478Z,200
2016-12-26T11:24:08.457Z,210
2016-12-26T11:25:19.439Z,145
2016-12-26T11:26:30.427Z,110
2016-12-26T11:27:41.466Z,125
2016-12-26T11:28:52.457Z,155
2016-12-26T11:30:03.444Z,170
2016-12-26T11:31:14.462Z,225
2016-12-26T11:32:25.440Z,180
2016-12-26T11:33:36.469Z,170
2016-12-26T11:34:47.654Z,315
2016-12-26T11:35:58.843Z,200
2016-12-26T11:37:09.828Z,170
2016-12-26T11:38:21.006Z,145
2016-12-26T11:39:32.040Z,150
2016-12-26T11:40:43.028Z,150
2016-12-26T11:41:54.210Z,270
2016-12-26T11:43:05.194Z,280
2016-12-26T11:44:16.176Z,1000
2016-12-26T11:45:27.214Z,720
2016-12-26T11:46:38.201Z,315
2016-12-26T11:47:49.183Z,330
2016-12-26T11:49:00.165Z,300
2016-12-26T11:50:11.162Z,405
2016-12-26T11:51:22.201Z,285
2016-12-26T11:52:33.175Z,280
2016-12-26T11:53:44.169Z,250
2016-12-26T11:54:55.153Z,235
2016-12-26T11:56:06.145Z,195
2016-12-26T11:57:17.347Z,200
2016-12-26T11:58:28.563Z,210
2016-12-26T11:59:39.758Z,215
2016-12-26T12:00:50.954Z,250
2016-12-26T12:02:01.947Z,305
2016-12-26T12:03:12.984Z,265
2016-12-26T12:04:23.970Z,210
2016-12-26T12:05:34.956Z,225
2016-12-26T12:06:45.948Z,285
2016-12-26T12:07:57.128Z,230
2016-12-26T12:09:08.116Z,275
2016-12-26T12:10:19.097Z,240
2016-12-26T12:11:30.083Z,280
2016-12-26T12:12:41.075Z,865
2016-12-26T12:13:52.116Z,310
2016-12-26T12:15:03.103Z,720
2016-12-26T12:16:14.092Z,445
2016-12-26T12:17:25.282Z,335
2016-12-26T12:18:36.276Z,375
2016-12-26T12:19:47.305Z,315
2016-12-26T12:20:58.293Z,270
2016-12-26T12:22:09.309Z,245
2016-12-26T12:23:20.498Z,220
2016-12-26T12:24:31.487Z,205
2016-12-26T12:25:42.525Z,160
2016-12-26T12:26:53.517Z,130
2016-12-26T12:28:04.501Z,110
2016-12-26T12:29:15.692Z,95
2016-12-26T12:30:26.677Z,125
2016-12-26T12:31:37.693Z,165
2016-12-26T12:32:48.687Z,165
2016-12-26T12:33:59.670Z,165
2016-12-26T12:35:11.028Z,190
2016-12-26T12:36:22.470Z,185
2016-12-26T12:37:33.873Z,155
2016-12-26T12:38:44.948Z,135
2016-12-26T12:39:56.367Z,125
2016-12-26T12:41:07.355Z,125
2016-12-26T12:42:18.393Z,120
2016-12-26T12:43:29.378Z,115
2016-12-26T12:44:40.373Z,130
2016-12-26T12:45:51.550Z,135
2016-12-26T12:47:02.741Z,140
2016-12-26T12:48:13.773Z,145
2016-12-26T12:49:24.754Z,135
2016-12-26T12:50:35.748Z,165
2016-12-26T12:51:46.741Z,165
2016-12-26T12:52:57.726Z,140
2016-12-26T12:54:08.721Z,140
2016-12-26T12:55:19.694Z,145
2016-12-26T12:56:30.744Z,165
2016-12-26T12:57:41.737Z,185
2016-12-26T12:58:52.776Z,180
2016-12-26T13:00:03.970Z,190
2016-12-26T13:01:14.963Z,180
2016-12-26T13:02:25.951Z,175
2016-12-26T13:03:37.135Z,165
2016-12-26T13:04:48.177Z,165
2016-12-26T13:05:59.188Z,145
2016-12-26T13:07:10.169Z,125
2016-12-26T13:08:21.155Z,125
2016-12-26T13:09:32.175Z,115
2016-12-26T13:10:43.213Z,115
2016-12-26T13:11:54.200Z,115
2016-12-26T13:13:05.194Z,120
2016-12-26T13:14:16.196Z,110
2016-12-26T13:15:27.190Z,95
2016-12-26T13:16:38.436Z,90
2016-12-26T13:17:49.650Z,85
2016-12-26T13:19:00.863Z,90
2016-12-26T13:20:11.854Z,90
2016-12-26T13:21:22.895Z,85
2016-12-26T13:22:33.879Z,80
2016-12-26T13:23:44.865Z,85
2016-12-26T13:24:55.849Z,90
2016-12-26T13:26:06.838Z,90
2016-12-26T13:27:18.077Z,80
2016-12-26T13:28:29.072Z,85
2016-12-26T13:29:40.054Z,90
2016-12-26T13:30:51.237Z,90
2016-12-26T13:32:02.222Z,90
2016-12-26T13:33:13.257Z,90
2016-12-26T13:34:24.475Z,95
2016-12-26T13:35:35.471Z,100
2016-12-26T13:36:46.656Z,100
2016-12-26T13:37:57.638Z,105
2016-12-26T13:39:08.621Z,110
2016-12-26T13:40:19.606Z,120
2016-12-26T13:41:30.591Z,135
2016-12-26T13:42:41.773Z,120
2016-12-26T13:43:52.756Z,110
2016-12-26T13:45:03.784Z,110
2016-12-26T13:46:14.766Z,110
2016-12-26T13:47:26.156Z,105
2016-12-26T13:48:37.144Z,105
2016-12-26T13:49:48.125Z,100
2016-12-26T13:50:59.315Z,105
2016-12-26T13:52:10.304Z,100
2016-12-26T13:53:21.285Z,120
2016-12-26T13:54:32.273Z,105
2016-12-26T13:55:43.308Z,115
2016-12-26T13:56:54.301Z,95
2016-12-26T13:58:05.283Z,95
2016-12-26T13:59:16.471Z,95
2016-12-26T14:00:27.452Z,90
2016-12-26T14:01:38.489Z,90
2016-12-26T14:02:49.486Z,90
2016-12-26T14:04:00.474Z,90
2016-12-26T14:05:11.460Z,90
2016-12-26T14:06:22.651Z,90
2016-12-26T14:07:33.696Z,95
2016-12-26T14:08:44.673Z,100
2016-12-26T14:09:55.652Z,105
2016-12-26T14:11:06.636Z,105
2016-12-26T14:12:17.628Z,105
2016-12-26T14:13:28.868Z,105
2016-12-26T14:14:39.853Z,90
2016-12-26T14:15:51.260Z,80
2016-12-26T14:17:02.242Z,85
2016-12-26T14:18:13.282Z,85
2016-12-26T14:19:24.304Z,70
2016-12-26T14:20:35.289Z,75
2016-12-26T14:21:46.284Z,75
2016-12-26T14:22:57.273Z,70
2016-12-26T14:24:08.368Z,65
2016-12-26T14:25:19.546Z,60
2016-12-26T14:26:30.528Z,55
2016-12-26T14:27:41.718Z,55
2016-12-26T14:28:52.699Z,60
2016-12-26T14:30:03.931Z,60
2016-12-26T14:31:14.916Z,55
2016-12-26T14:32:25.902Z,55
2016-12-26T14:33:37.094Z,55
2016-12-26T14:34:48.076Z,55
2016-12-26T14:35:59.264Z,50
2016-12-26T14:37:10.251Z,50
2016-12-26T14:38:21.272Z,50
2016-12-26T14:39:32.456Z,50
2016-12-26T14:40:43.692Z,50
2016-12-26T14:41:54.678Z,50
2016-12-26T14:43:05.659Z,50
2016-12-26T14:44:16.650Z,50
2016-12-26T14:45:27.630Z,50
2016-12-26T14:46:38.721Z,50
2016-12-26T14:47:49.710Z,45
2016-12-26T14:49:00.696Z,45
2016-12-26T14:50:11.691Z,40
2016-12-26T14:51:22.667Z,40
2016-12-26T14:52:34.102Z,40
2016-12-26T14:53:45.090Z,40
2016-12-26T14:54:56.073Z,40
2016-12-26T14:56:07.054Z,35
2016-12-26T14:57:18.027Z,35
2016-12-26T14:58:29.013Z,35
2016-12-26T14:59:40.004Z,30
2016-12-26T15:00:50.982Z,30
2016-12-26T15:02:01.967Z,30
2016-12-26T15:03:13.010Z,25
2016-12-26T15:04:23.996Z,25
2016-12-26T15:05:34.981Z,25
2016-12-26T15:06:45.959Z,20
2016-12-26T15:07:57.170Z,20
2016-12-26T15:09:08.414Z,20
2016-12-26T15:10:19.398Z,20
2016-12-26T15:11:30.578Z,20
2016-12-26T15:12:41.555Z,15
2016-12-26T15:13:52.540Z,15
2016-12-26T15:15:03.776Z,15
2016-12-26T15:16:14.759Z,15
2016-12-26T15:17:25.747Z,10
2016-12-26T15:18:36.735Z,10
2016-12-26T15:19:47.917Z,10
2016-12-26T15:20:58.897Z,10
2016-12-26T15:22:09.880Z,10
2016-12-26T15:23:20.859Z,10
2016-12-26T15:24:31.839Z,5
2016-12-26T15:25:43.068Z,5
2016-12-26T15:26:54.052Z,5
2016-12-26T15:28:05.028Z,5
2016-12-26T15:29:16.020Z,5
2016-12-26T15:30:27.006Z,5
2016-12-26T15:31:38.036Z,5
2016-12-26T15:32:49.023Z,0
2016-12-26T15:34:00.027Z,0
2016-12-26T15:35:11.017Z,0
2016-12-26T15:36:22.008Z,0
2016-12-26T15:37:33.046Z,0
2016-12-26T15:38:44.044Z,0
2016-12-26T15:39:55.025Z,0
2016-12-26T15:41:06.017Z,0
2016-12-26T15:42:17.028Z,0
2016-12-26T15:43:28.031Z,0
2016-12-26T15:44:39.020Z,0
2016-12-26T15:45:50.009Z,0
2016-12-26T15:47:00.992Z,0
2016-12-26T15:48:12.224Z,0
2016-12-26T15:49:23.209Z,0
2016-12-26T15:50:34.189Z,0
2016-12-26T15:51:45.177Z,0
2016-12-26T15:52:56.163Z,0
2016-12-26T15:54:07.197Z,0
2016-12-26T15:55:18.185Z,0
2016-12-26T15:56:29.170Z,0
2016-12-26T15:57:40.357Z,0
2016-12-26T15:58:51.382Z,0
2016-12-26T16:00:02.446Z,0
2016-12-26T16:01:13.436Z,0
2016-12-26T16:02:24.421Z,0
2016-12-26T16:03:35.404Z,0
2016-12-26T16:04:46.380Z,0
2016-12-26T16:05:57.468Z,0
2016-12-26T16:07:08.658Z,0
2016-12-26T16:08:19.646Z,0
2016-12-26T16:09:30.629Z,0
2016-12-26T16:10:41.824Z,0
2016-12-26T16:11:52.856Z,0
2016-12-26T16:13:03.843Z,0
2016-12-26T16:14:14.829Z,0
2016-12-26T16:15:25.822Z,0
2016-12-26T16:16:37.000Z,0
2016-12-26T16:17:47.983Z,0
2016-12-26T16:18:58.965Z,0
2016-12-26T16:20:09.945Z,0
2016-12-26T16:21:20.927Z,0
2016-12-26T16:22:32.008Z,0
2016-12-26T16:23:43.193Z,0
2016-12-26T16:24:54.176Z,0
2016-12-26T16:26:05.363Z,0
2016-12-26T16:27:16.360Z,0
2016-12-26T16:28:27.388Z,0
2016-12-26T16:29:38.373Z,0
2016-12-26T16:30:49.354Z,0
2016-12-26T16:32:00.541Z,0
2016-12-26T16:33:11.717Z,0
2016-12-26T16:34:22.750Z,0
2016-12-26T16:35:33.734Z,0
2016-12-26T16:36:44.715Z,0
2016-12-26T16:37:55.900Z,0
2016-12-26T16:39:06.915Z,0
2016-12-26T16:40:18.092Z,0
2016-12-26T16:41:29.274Z,0
2016-12-26T16:42:40.253Z,0
2016-12-26T16:43:51.245Z,0
2016-12-26T16:45:02.281Z,0
2016-12-26T16:46:13.264Z,0
2016-12-26T16:47:24.646Z,0
2016-12-26T16:48:35.832Z,0
2016-12-26T16:49:46.814Z,0
2016-12-26T16:50:57.954Z,0
2016-12-26T16:52:08.945Z,0
2016-12-26T16:53:19.926Z,0
2016-12-26T16:54:30.905Z,0
2016-12-26T16:55:42.096Z,0
2016-12-26T16:56:53.329Z,0
2016-12-26T16:58:04.315Z,0
2016-12-26T16:59:15.294Z,0
2016-12-26T17:00:26.270Z,0
2016-12-26T17:01:37.251Z,0
2016-12-26T17:02:48.232Z,0
2016-12-26T17:03:59.629Z,0
2016-12-26T17:05:10.815Z,0
2016-12-26T17:06:22.026Z,0
2016-12-26T17:07:33.166Z,0
2016-12-26T17:08:44.149Z,0